createdAt,value
2017-09-30T00:01:33.236Z,4.80
2017-09-30T00:04:00.735Z,4.70
2017-09-30T00:06:28.209Z,5.40
2017-09-30T00:08:55.670Z,7.07
2017-09-30T00:11:23.933Z,5.53
2017-09-30T00:13:51.403Z,8.07
2017-09-30T00:16:19.627Z,6.17
2017-09-30T00:18:47.091Z,7.13
2017-09-30T00:21:14.565Z,7.97
2017-09-30T00:23:42.036Z,8.23
2017-09-30T00:26:09.524Z,6.77
2017-09-30T00:28:36.992Z,7.63
2017-09-30T00:31:04.450Z,8.67
2017-09-30T00:33:31.927Z,6.97
2017-09-30T00:35:59.423Z,8.57
2017-09-30T00:38:27.651Z,8.37
2017-09-30T00:40:55.137Z,8.03
2017-09-30T00:43:22.626Z,7.93
2017-09-30T00:45:50.859Z,8.70
2017-09-30T00:48:18.330Z,9.03
2017-09-30T00:50:45.784Z,7.63
2017-09-30T00:53:13.252Z,6.90
2017-09-30T00:55:41.646Z,7.17
2017-09-30T00:58:09.876Z,6.83
2017-09-30T01:00:37.359Z,6.67
2017-09-30T01:03:04.921Z,5.10
2017-09-30T01:05:33.160Z,5.47
2017-09-30T01:08:01.676Z,5.87
2017-09-30T01:10:31.184Z,6.33
2017-09-30T01:12:59.451Z,4.70
2017-09-30T01:15:27.685Z,5.03
2017-09-30T01:17:55.804Z,3.90
2017-09-30T01:20:24.050Z,4.30
2017-09-30T01:22:51.521Z,4.10
2017-09-30T01:25:18.993Z,4.20
2017-09-30T01:27:46.448Z,5.73
2017-09-30T01:30:13.911Z,4.10
2017-09-30T01:32:42.228Z,4.60
2017-09-30T01:35:09.731Z,4.57
2017-09-30T01:37:37.194Z,3.80
2017-09-30T01:40:05.476Z,2.80
2017-09-30T01:42:33.746Z,4.30
2017-09-30T01:45:01.212Z,4.60
2017-09-30T01:47:29.473Z,4.00
2017-09-30T01:49:57.020Z,4.07
2017-09-30T01:52:24.482Z,4.40
2017-09-30T01:54:51.961Z,3.47
2017-09-30T01:57:20.219Z,4.13
2017-09-30T01:59:47.779Z,3.47
2017-09-30T02:02:15.271Z,3.00
2017-09-30T02:04:42.744Z,3.23
2017-09-30T02:07:10.253Z,3.30
2017-09-30T02:09:38.516Z,3.97
2017-09-30T02:12:06.080Z,3.07
2017-09-30T02:14:33.558Z,3.30
2017-09-30T02:17:01.804Z,2.97
2017-09-30T02:19:29.288Z,2.87
2017-09-30T02:21:57.532Z,3.17
2017-09-30T02:24:25.024Z,2.93
2017-09-30T02:26:53.270Z,4.20
2017-09-30T02:29:20.743Z,3.40
2017-09-30T02:31:48.224Z,3.40
2017-09-30T02:34:16.484Z,2.70
2017-09-30T02:36:44.748Z,3.90
2017-09-30T02:39:12.459Z,3.43
2017-09-30T02:41:39.930Z,3.30
2017-09-30T02:44:07.407Z,3.73
2017-09-30T02:46:34.871Z,2.83
2017-09-30T02:49:02.442Z,3.37
2017-09-30T02:51:30.276Z,3.57
2017-09-30T02:53:57.755Z,3.10
2017-09-30T02:56:25.229Z,2.90
2017-09-30T02:58:53.485Z,3.10
2017-09-30T03:01:20.998Z,3.83
2017-09-30T03:03:49.220Z,3.63
2017-09-30T03:06:16.695Z,2.80
2017-09-30T03:08:44.932Z,3.43
2017-09-30T03:11:12.413Z,2.77
2017-09-30T03:13:40.025Z,3.83
2017-09-30T03:16:07.499Z,3.43
2017-09-30T03:18:34.991Z,4.90
2017-09-30T03:21:02.465Z,4.00
2017-09-30T03:23:30.716Z,3.00
2017-09-30T03:25:58.225Z,4.40
2017-09-30T03:28:25.743Z,3.87
2017-09-30T03:30:53.214Z,3.53
2017-09-30T03:33:21.460Z,3.50
2017-09-30T03:35:49.589Z,4.63
2017-09-30T03:38:17.067Z,4.13
2017-09-30T03:40:44.526Z,4.60
2017-09-30T03:43:11.991Z,3.87
2017-09-30T03:45:39.613Z,4.70
2017-09-30T03:48:07.177Z,4.53
2017-09-30T03:50:34.684Z,4.17
2017-09-30T03:53:02.164Z,5.20
2017-09-30T03:55:30.408Z,4.53
2017-09-30T03:57:57.884Z,4.00
2017-09-30T04:00:26.202Z,4.33
2017-09-30T04:02:53.672Z,3.80
2017-09-30T04:05:21.151Z,4.13
2017-09-30T04:07:48.741Z,4.63
2017-09-30T04:10:16.989Z,4.20
2017-09-30T04:12:44.468Z,3.30
2017-09-30T04:15:12.703Z,4.50
2017-09-30T04:17:40.174Z,3.97
2017-09-30T04:20:07.648Z,4.50
2017-09-30T04:22:35.205Z,4.80
2017-09-30T04:25:02.684Z,3.80
2017-09-30T04:27:30.925Z,4.00
2017-09-30T04:29:58.505Z,3.87
2017-09-30T04:32:26.789Z,4.20
2017-09-30T04:34:55.027Z,5.17
2017-09-30T04:37:22.503Z,5.53
2017-09-30T04:39:49.999Z,4.40
2017-09-30T04:42:17.475Z,5.93
2017-09-30T04:44:44.960Z,5.20
2017-09-30T04:47:12.437Z,5.83
2017-09-30T04:49:39.908Z,6.00
2017-09-30T04:52:08.146Z,4.60
2017-09-30T04:54:35.620Z,4.33
2017-09-30T04:57:03.096Z,4.93
2017-09-30T04:59:31.537Z,4.93
2017-09-30T05:01:59.006Z,5.20
2017-09-30T05:04:26.488Z,5.00
2017-09-30T05:06:54.765Z,5.13
2017-09-30T05:09:23.008Z,4.70
2017-09-30T05:11:50.482Z,5.93
2017-09-30T05:14:18.743Z,5.73
2017-09-30T05:16:46.227Z,3.70
2017-09-30T05:19:14.455Z,6.10
2017-09-30T05:21:41.937Z,5.60
2017-09-30T05:24:09.803Z,5.33
2017-09-30T05:26:37.276Z,6.67
2017-09-30T05:29:05.518Z,4.53
2017-09-30T05:31:32.991Z,5.40
2017-09-30T05:34:00.472Z,4.73
2017-09-30T05:36:28.715Z,4.57
2017-09-30T05:38:56.175Z,5.60
2017-09-30T05:41:23.747Z,5.50
2017-09-30T05:43:51.203Z,4.40
2017-09-30T05:46:18.700Z,4.30
2017-09-30T05:48:46.171Z,6.00
2017-09-30T05:51:13.680Z,5.17
2017-09-30T05:53:41.931Z,5.40
2017-09-30T05:56:09.418Z,4.77
2017-09-30T05:58:37.690Z,4.30
2017-09-30T06:01:05.158Z,5.00
2017-09-30T06:03:33.399Z,5.13
2017-09-30T06:06:01.654Z,4.57
2017-09-30T06:08:29.123Z,4.23
2017-09-30T06:10:56.605Z,4.67
2017-09-30T06:13:24.183Z,4.80
2017-09-30T06:15:51.680Z,4.90
2017-09-30T06:18:19.162Z,5.33
2017-09-30T06:20:46.635Z,4.80
2017-09-30T06:23:14.205Z,4.40
2017-09-30T06:25:42.455Z,4.83
2017-09-30T06:28:09.950Z,4.40
2017-09-30T06:30:38.358Z,4.70
2017-09-30T06:33:05.869Z,6.80
2017-09-30T06:35:33.340Z,4.90
2017-09-30T06:38:01.679Z,4.63
2017-09-30T06:40:29.155Z,3.87
2017-09-30T06:42:57.419Z,5.17
2017-09-30T06:45:24.941Z,5.50
2017-09-30T06:47:52.442Z,6.47
2017-09-30T06:50:19.911Z,5.53
2017-09-30T06:52:48.156Z,4.60
2017-09-30T06:55:15.640Z,5.40
2017-09-30T06:57:43.903Z,4.80
2017-09-30T07:00:12.332Z,5.03
2017-09-30T07:02:39.832Z,5.20
2017-09-30T07:05:07.348Z,4.40
2017-09-30T07:07:34.831Z,5.10
2017-09-30T07:10:02.357Z,4.37
2017-09-30T07:12:29.861Z,4.90
2017-09-30T07:14:57.347Z,5.10
2017-09-30T07:17:25.721Z,6.33
2017-09-30T07:19:53.962Z,6.37
2017-09-30T07:22:21.445Z,4.97
2017-09-30T07:24:48.996Z,4.57
2017-09-30T07:27:16.559Z,5.07
2017-09-30T07:29:44.047Z,4.13
2017-09-30T07:32:11.532Z,5.77
2017-09-30T07:34:39.599Z,4.30
2017-09-30T07:37:07.078Z,4.93
2017-09-30T07:39:34.706Z,4.40
2017-09-30T07:42:02.271Z,4.13
2017-09-30T07:44:29.771Z,4.87
2017-09-30T07:46:58.104Z,4.33
2017-09-30T07:49:25.620Z,5.10
2017-09-30T07:51:53.399Z,5.27
2017-09-30T07:54:20.976Z,5.40
2017-09-30T07:56:48.909Z,5.33
2017-09-30T07:59:19.078Z,4.70
2017-09-30T08:01:47.513Z,3.60
2017-09-30T08:04:16.409Z,6.40
2017-09-30T08:06:45.520Z,4.63
2017-09-30T08:09:13.023Z,4.77
2017-09-30T08:11:40.575Z,5.40
2017-09-30T08:14:08.053Z,5.90
2017-09-30T08:16:35.524Z,4.90
2017-09-30T08:19:03.123Z,4.50
2017-09-30T08:21:30.594Z,5.30
2017-09-30T08:23:58.068Z,4.43
2017-09-30T08:26:26.919Z,5.47
2017-09-30T08:28:55.610Z,4.60
2017-09-30T08:31:24.342Z,4.37
2017-09-30T08:33:51.901Z,4.77
2017-09-30T08:36:21.914Z,4.37
2017-09-30T08:38:49.730Z,5.40
2017-09-30T08:41:17.314Z,4.30
2017-09-30T08:43:44.824Z,4.63
2017-09-30T08:46:12.352Z,5.40
2017-09-30T08:48:41.215Z,5.33
2017-09-30T08:51:08.736Z,3.93
2017-09-30T08:53:37.038Z,4.17
2017-09-30T08:56:04.696Z,4.63
2017-09-30T08:58:32.195Z,5.17
2017-09-30T09:00:59.689Z,4.43
2017-09-30T09:03:27.169Z,4.43
2017-09-30T09:05:54.646Z,4.80
2017-09-30T09:08:22.154Z,4.47
2017-09-30T09:10:51.446Z,4.30
2017-09-30T09:13:18.960Z,5.00
2017-09-30T09:15:47.421Z,3.90
2017-09-30T09:18:14.906Z,5.20
2017-09-30T09:20:43.236Z,4.30
2017-09-30T09:23:11.476Z,4.80
2017-09-30T09:25:39.339Z,4.13
2017-09-30T09:28:06.861Z,5.47
2017-09-30T09:30:34.357Z,4.50
2017-09-30T09:33:01.920Z,5.80
2017-09-30T09:35:30.306Z,4.70
2017-09-30T09:37:59.416Z,4.33
2017-09-30T09:40:27.663Z,4.50
2017-09-30T09:42:55.193Z,4.63
2017-09-30T09:45:22.695Z,3.77
2017-09-30T09:47:50.967Z,4.03
2017-09-30T09:50:19.209Z,4.67
2017-09-30T09:52:46.709Z,4.23
2017-09-30T09:55:14.987Z,4.83
2017-09-30T09:57:43.258Z,3.97
2017-09-30T10:00:11.504Z,4.80
2017-09-30T10:02:39.217Z,5.00
2017-09-30T10:05:06.751Z,4.30
2017-09-30T10:07:35.004Z,4.27
2017-09-30T10:10:02.505Z,3.80
2017-09-30T10:12:29.968Z,4.17
2017-09-30T10:14:57.451Z,4.53
2017-09-30T10:17:24.993Z,4.93
2017-09-30T10:19:52.458Z,4.03
2017-09-30T10:22:19.922Z,4.10
2017-09-30T10:24:47.417Z,4.63
2017-09-30T10:27:15.742Z,3.90
2017-09-30T10:29:43.216Z,3.43
2017-09-30T10:32:11.022Z,3.73
2017-09-30T10:34:38.580Z,4.07
2017-09-30T10:37:06.820Z,4.73
2017-09-30T10:39:34.596Z,4.30
2017-09-30T10:42:02.064Z,4.27
2017-09-30T10:44:29.569Z,3.93
2017-09-30T10:46:57.072Z,3.10
2017-09-30T10:49:24.535Z,3.10
2017-09-30T10:51:52.004Z,3.60
2017-09-30T10:54:19.492Z,3.70
2017-09-30T10:56:46.963Z,3.10
2017-09-30T10:59:14.464Z,3.27
2017-09-30T11:01:44.874Z,3.27
2017-09-30T11:04:16.852Z,4.23
2017-09-30T11:06:44.535Z,4.17
2017-09-30T11:09:13.435Z,3.03
2017-09-30T11:11:41.279Z,4.10
2017-09-30T11:14:09.467Z,3.47
2017-09-30T11:16:37.672Z,3.27
2017-09-30T11:19:05.164Z,3.80
2017-09-30T11:21:32.655Z,3.67
2017-09-30T11:24:01.836Z,2.97
2017-09-30T11:26:31.593Z,3.20
2017-09-30T11:28:59.079Z,4.30
2017-09-30T11:31:26.564Z,3.90
2017-09-30T11:33:54.034Z,4.07
2017-09-30T11:36:22.324Z,3.37
2017-09-30T11:38:49.841Z,4.10
2017-09-30T11:41:17.323Z,4.20
2017-09-30T11:43:45.587Z,3.87
2017-09-30T11:46:13.843Z,3.00
2017-09-30T11:48:41.326Z,3.73
2017-09-30T11:51:10.507Z,3.43
2017-09-30T11:53:37.982Z,3.07
2017-09-30T11:56:06.256Z,3.27
2017-09-30T11:58:34.531Z,2.67
2017-09-30T12:01:02.107Z,2.17
2017-09-30T12:03:29.688Z,2.27
2017-09-30T12:05:57.384Z,2.17
2017-09-30T12:08:25.070Z,2.50
2017-09-30T12:10:53.319Z,2.40
2017-09-30T12:13:20.821Z,1.93
2017-09-30T12:15:48.312Z,2.50
2017-09-30T12:18:15.792Z,2.13
2017-09-30T12:20:43.292Z,2.20
2017-09-30T12:23:11.553Z,3.30
2017-09-30T12:25:39.840Z,2.60
2017-09-30T12:28:08.108Z,3.03
2017-09-30T12:30:35.639Z,3.43
2017-09-30T12:33:03.108Z,3.00
2017-09-30T12:35:30.614Z,3.70
2017-09-30T12:37:58.084Z,3.53
2017-09-30T12:40:25.547Z,3.63
2017-09-30T12:42:53.147Z,4.40
2017-09-30T12:45:21.397Z,3.63
2017-09-30T12:47:48.879Z,3.37
2017-09-30T12:50:16.361Z,3.33
2017-09-30T12:52:44.070Z,3.57
2017-09-30T12:55:11.529Z,2.43
2017-09-30T12:57:39.008Z,3.17
2017-09-30T13:00:08.308Z,3.43
2017-09-30T13:02:36.847Z,2.87
2017-09-30T13:05:04.340Z,3.27
2017-09-30T13:07:31.812Z,2.50
2017-09-30T13:10:00.055Z,2.90
2017-09-30T13:12:27.573Z,2.90
2017-09-30T13:14:55.398Z,2.80
2017-09-30T13:17:22.879Z,2.37
2017-09-30T13:19:50.731Z,2.87
2017-09-30T13:22:19.983Z,2.33
2017-09-30T13:24:47.507Z,2.50
2017-09-30T13:27:15.242Z,3.37
2017-09-30T13:29:44.213Z,2.60
2017-09-30T13:32:11.692Z,2.60
2017-09-30T13:34:39.240Z,2.87
2017-09-30T13:37:07.488Z,3.70
2017-09-30T13:39:34.980Z,3.53
2017-09-30T13:42:02.742Z,3.93
2017-09-30T13:44:30.200Z,3.37
2017-09-30T13:46:57.675Z,3.43
2017-09-30T13:49:26.236Z,4.63
2017-09-30T13:51:53.969Z,4.13
2017-09-30T13:54:21.442Z,4.50
2017-09-30T13:56:48.928Z,3.10
2017-09-30T13:59:17.088Z,3.87
2017-09-30T14:01:44.666Z,4.43
2017-09-30T14:04:12.921Z,3.50
2017-09-30T14:06:40.486Z,3.50
2017-09-30T14:09:08.779Z,3.30
2017-09-30T14:11:36.311Z,3.37
2017-09-30T14:14:04.578Z,3.43
2017-09-30T14:16:32.072Z,3.93
2017-09-30T14:18:59.573Z,3.80
2017-09-30T14:21:27.135Z,4.90
2017-09-30T14:23:55.105Z,3.30
2017-09-30T14:26:23.021Z,3.07
2017-09-30T14:28:51.737Z,4.33
2017-09-30T14:31:20.387Z,3.77
2017-09-30T14:33:48.280Z,4.30
2017-09-30T14:36:15.791Z,3.17
2017-09-30T14:38:43.303Z,3.87
2017-09-30T14:41:10.813Z,3.37
2017-09-30T14:43:38.796Z,3.10
2017-09-30T14:46:06.528Z,2.90
2017-09-30T14:48:34.008Z,3.77
2017-09-30T14:51:01.975Z,3.80
2017-09-30T14:53:30.627Z,2.40
2017-09-30T14:55:58.282Z,2.30
2017-09-30T14:58:26.011Z,3.10
2017-09-30T15:00:53.522Z,2.70
2017-09-30T15:03:21.298Z,2.63
2017-09-30T15:05:49.707Z,2.77
2017-09-30T15:08:18.051Z,2.60
2017-09-30T15:10:46.780Z,2.80
2017-09-30T15:13:16.164Z,2.60
2017-09-30T15:15:44.170Z,3.80
2017-09-30T15:18:12.044Z,2.10
2017-09-30T15:20:40.705Z,2.10
2017-09-30T15:23:08.702Z,2.80
2017-09-30T15:25:38.685Z,3.33
2017-09-30T15:28:07.092Z,3.00
2017-09-30T15:30:37.625Z,2.90
2017-09-30T15:33:05.720Z,3.40
2017-09-30T15:35:33.212Z,3.23
2017-09-30T15:38:01.656Z,3.23
2017-09-30T15:40:30.090Z,3.10
2017-09-30T15:42:58.076Z,2.50
2017-09-30T15:45:25.769Z,2.50
2017-09-30T15:47:54.029Z,2.90
2017-09-30T15:50:22.407Z,2.83
2017-09-30T15:52:49.896Z,2.30
2017-09-30T15:55:18.139Z,2.53
2017-09-30T15:57:45.616Z,2.73
2017-09-30T16:00:13.125Z,2.37
2017-09-30T16:02:40.772Z,2.80
2017-09-30T16:05:08.299Z,3.13
2017-09-30T16:07:35.775Z,2.57
2017-09-30T16:10:03.263Z,2.90
2017-09-30T16:12:30.731Z,3.47
2017-09-30T16:14:58.211Z,3.60
2017-09-30T16:17:25.993Z,2.50
2017-09-30T16:19:54.334Z,2.90
2017-09-30T16:22:21.819Z,3.00
2017-09-30T16:24:49.322Z,3.10
2017-09-30T16:27:16.839Z,2.97
2017-09-30T16:29:46.101Z,1.90
2017-09-30T16:32:13.753Z,2.40
2017-09-30T16:34:41.276Z,3.20
2017-09-30T16:37:09.512Z,2.33
2017-09-30T16:39:37.008Z,2.37
2017-09-30T16:42:04.741Z,2.80
2017-09-30T16:44:32.995Z,3.53
2017-09-30T16:47:00.756Z,2.13
2017-09-30T16:49:28.244Z,2.57
2017-09-30T16:51:55.712Z,2.73
2017-09-30T16:54:24.013Z,2.73
2017-09-30T16:56:51.496Z,3.47
2017-09-30T16:59:19.079Z,3.20
2017-09-30T17:01:47.239Z,2.90
2017-09-30T17:04:14.725Z,3.17
2017-09-30T17:06:42.975Z,3.10
2017-09-30T17:09:10.563Z,3.60
2017-09-30T17:11:38.823Z,2.97
2017-09-30T17:14:06.308Z,3.50
2017-09-30T17:16:34.576Z,3.40
2017-09-30T17:19:02.823Z,3.57
2017-09-30T17:21:30.324Z,3.30
2017-09-30T17:23:58.558Z,2.67
2017-09-30T17:26:26.063Z,3.70
2017-09-30T17:28:53.929Z,3.47
2017-09-30T17:31:23.834Z,2.70
2017-09-30T17:33:51.380Z,2.90
2017-09-30T17:36:19.637Z,3.33
2017-09-30T17:38:47.111Z,3.23
2017-09-30T17:41:15.380Z,3.13
2017-09-30T17:43:44.160Z,3.10
2017-09-30T17:46:11.624Z,3.80
2017-09-30T17:48:39.862Z,3.70
2017-09-30T17:51:07.408Z,3.80
2017-09-30T17:53:34.875Z,4.70
2017-09-30T17:56:02.455Z,4.23
2017-09-30T17:58:30.037Z,4.27
2017-09-30T18:00:58.259Z,3.37
2017-09-30T18:03:25.719Z,3.90
2017-09-30T18:05:53.208Z,3.70
2017-09-30T18:08:22.188Z,3.40
2017-09-30T18:10:49.676Z,3.00
2017-09-30T18:13:17.966Z,3.03
2017-09-30T18:15:46.186Z,3.90
2017-09-30T18:18:13.643Z,4.00
2017-09-30T18:20:41.118Z,5.03
2017-09-30T18:23:08.776Z,3.67
2017-09-30T18:25:36.237Z,4.27
2017-09-30T18:28:04.226Z,3.33
2017-09-30T18:30:31.699Z,3.60
2017-09-30T18:32:59.329Z,3.07
2017-09-30T18:35:26.866Z,3.70
2017-09-30T18:37:54.336Z,3.83
2017-09-30T18:40:21.803Z,4.50
2017-09-30T18:42:49.275Z,3.93
2017-09-30T18:45:17.494Z,5.50
2017-09-30T18:47:45.685Z,4.47
2017-09-30T18:50:13.167Z,4.80
2017-09-30T18:52:41.434Z,4.90
2017-09-30T18:55:08.899Z,4.87
2017-09-30T18:57:38.191Z,6.70
2017-09-30T19:00:05.699Z,5.93
2017-09-30T19:02:33.179Z,6.60
2017-09-30T19:05:00.730Z,5.97
2017-09-30T19:07:28.207Z,6.30
2017-09-30T19:09:55.686Z,4.93
2017-09-30T19:12:23.421Z,5.80
2017-09-30T19:14:50.895Z,6.60
2017-09-30T19:17:19.878Z,5.37
2017-09-30T19:19:47.461Z,6.03
2017-09-30T19:22:15.062Z,5.63
2017-09-30T19:24:42.538Z,5.80
2017-09-30T19:27:10.003Z,9.53
2017-09-30T19:29:37.565Z,8.20
2017-09-30T19:32:05.043Z,6.50
2017-09-30T19:34:32.807Z,6.30
2017-09-30T19:37:00.274Z,6.20
2017-09-30T19:39:28.507Z,6.93
2017-09-30T19:41:56.011Z,6.60
2017-09-30T19:44:24.249Z,6.50
2017-09-30T19:46:51.711Z,8.30
2017-09-30T19:49:19.605Z,9.43
2017-09-30T19:51:47.099Z,9.57
2017-09-30T19:54:14.575Z,7.90
2017-09-30T19:56:42.068Z,7.77
2017-09-30T19:59:09.536Z,7.40
2017-09-30T20:01:37.925Z,7.87
2017-09-30T20:04:06.484Z,6.27
2017-09-30T20:06:33.938Z,6.40
2017-09-30T20:09:01.428Z,6.13
2017-09-30T20:11:28.908Z,5.90
2017-09-30T20:13:56.459Z,6.50
2017-09-30T20:16:24.018Z,6.40
2017-09-30T20:18:51.835Z,5.77
2017-09-30T20:21:19.325Z,6.30
2017-09-30T20:23:46.786Z,7.33
2017-09-30T20:26:14.607Z,7.17
2017-09-30T20:28:42.437Z,7.23
2017-09-30T20:31:09.904Z,7.40
2017-09-30T20:33:37.383Z,8.03
2017-09-30T20:36:04.879Z,7.30
2017-09-30T20:38:32.364Z,6.53
2017-09-30T20:40:59.871Z,7.00
2017-09-30T20:43:27.332Z,8.43
2017-09-30T20:45:55.617Z,6.67
2017-09-30T20:48:23.143Z,7.23
2017-09-30T20:50:50.613Z,6.60
2017-09-30T20:53:18.134Z,8.23
2017-09-30T20:55:47.967Z,7.40
2017-09-30T20:58:15.428Z,8.53
2017-09-30T21:00:42.925Z,6.97
2017-09-30T21:03:11.169Z,6.50
2017-09-30T21:05:39.597Z,6.60
2017-09-30T21:08:07.079Z,7.57
2017-09-30T21:10:34.564Z,7.73
2017-09-30T21:13:02.045Z,7.50
2017-09-30T21:15:30.275Z,7.30
2017-09-30T21:17:57.753Z,6.23
2017-09-30T21:20:25.237Z,5.73
2017-09-30T21:22:53.534Z,5.70
2017-09-30T21:25:21.037Z,5.67
2017-09-30T21:27:48.522Z,7.63
2017-09-30T21:30:16.781Z,7.60
2017-09-30T21:32:44.340Z,6.70
2017-09-30T21:35:12.585Z,7.60
2017-09-30T21:37:41.236Z,6.70
2017-09-30T21:40:08.713Z,7.10
2017-09-30T21:42:36.192Z,7.60
2017-09-30T21:45:04.156Z,6.20
2017-09-30T21:47:32.125Z,7.90
2017-09-30T21:49:59.596Z,6.57
2017-09-30T21:52:27.063Z,6.90
2017-09-30T21:54:54.544Z,5.70
2017-09-30T21:57:22.771Z,6.40
2017-09-30T21:59:50.237Z,8.07
2017-09-30T22:02:17.738Z,7.30
2017-09-30T22:04:45.431Z,6.70
2017-09-30T22:07:12.888Z,7.37
2017-09-30T22:09:40.691Z,5.50
2017-09-30T22:12:08.149Z,7.20
2017-09-30T22:14:35.603Z,6.53
2017-09-30T22:17:04.657Z,6.23
2017-09-30T22:19:32.111Z,7.07
2017-09-30T22:21:59.570Z,8.93
2017-09-30T22:24:27.051Z,6.17
2017-09-30T22:26:54.519Z,6.47
2017-09-30T22:29:22.086Z,8.30
2017-09-30T22:31:49.543Z,6.90
2017-09-30T22:34:17.811Z,6.97
2017-09-30T22:36:45.286Z,7.13
2017-09-30T22:39:13.521Z,6.50
2017-09-30T22:41:40.995Z,7.20
2017-09-30T22:44:08.467Z,7.50
2017-09-30T22:46:36.731Z,6.30
2017-09-30T22:49:04.275Z,7.00
2017-09-30T22:51:31.774Z,8.30
2017-09-30T22:53:59.254Z,6.30
2017-09-30T22:56:26.731Z,7.20
2017-09-30T22:58:55.261Z,7.10
2017-09-30T23:01:24.528Z,7.80
2017-09-30T23:03:52.003Z,8.63
2017-09-30T23:06:19.554Z,7.37
2017-09-30T23:08:47.203Z,6.23
2017-09-30T23:11:14.779Z,7.50
2017-09-30T23:13:45.439Z,7.63
2017-09-30T23:16:13.251Z,8.40
2017-09-30T23:18:41.117Z,7.70
2017-09-30T23:21:10.240Z,9.57
2017-09-30T23:23:37.915Z,10.10
2017-09-30T23:26:06.236Z,10.07
2017-09-30T23:28:33.715Z,8.70
2017-09-30T23:31:01.797Z,9.13
2017-09-30T23:33:30.544Z,10.87
2017-09-30T23:35:58.070Z,9.90
2017-09-30T23:38:27.599Z,8.97
2017-09-30T23:40:55.068Z,10.20
2017-09-30T23:43:22.672Z,10.10
2017-09-30T23:45:50.139Z,8.53
2017-09-30T23:48:18.358Z,8.10
2017-09-30T23:50:46.827Z,8.93
2017-09-30T23:53:14.287Z,9.03
2017-09-30T23:55:41.755Z,9.70
2017-09-30T23:58:09.227Z,10.60
